createdAt,value
2022-10-18T00:00:49.705Z,11.50
2022-10-18T00:03:20.158Z,11.50
2022-10-18T00:05:51.291Z,11.90
2022-10-18T00:08:22.117Z,13.20
2022-10-18T00:10:53.041Z,21.60
2022-10-18T00:13:24.736Z,13.50
2022-10-18T00:15:57.239Z,17.20
2022-10-18T00:18:27.881Z,16.00
2022-10-18T00:21:02.555Z,13.60
2022-10-18T00:23:33.672Z,10.70
2022-10-18T00:26:06.457Z,13.00
2022-10-18T00:31:17.545Z,9.30
2022-10-18T00:33:49.181Z,19.10
2022-10-18T00:36:20.196Z,12.90
2022-10-18T00:38:50.909Z,14.30
2022-10-18T00:41:23.453Z,13.90
2022-10-18T00:43:59.272Z,21.60
2022-10-18T00:46:31.090Z,12.30
2022-10-18T00:49:11.373Z,23.40
2022-10-18T00:51:44.524Z,15.90
2022-10-18T00:54:16.115Z,10.90
2022-10-18T00:56:46.669Z,12.10
2022-10-18T00:59:18.217Z,14.30
2022-10-18T01:01:49.149Z,12.50
2022-10-18T01:04:21.055Z,14.20
2022-10-18T01:09:36.053Z,14.10
2022-10-18T01:12:15.719Z,12.20
2022-10-18T01:14:50.255Z,12.60
2022-10-18T01:17:25.016Z,11.30
2022-10-18T01:20:26.008Z,13.50
2022-10-18T01:23:00.271Z,22.20
2022-10-18T01:25:40.691Z,10.50
2022-10-18T01:28:25.750Z,11.30
2022-10-18T01:31:00.267Z,14.10
2022-10-18T01:33:37.164Z,12.70
2022-10-18T01:36:11.077Z,16.30
2022-10-18T01:38:42.594Z,17.00
2022-10-18T01:41:15.786Z,11.40
2022-10-18T01:43:47.885Z,12.60
2022-10-18T01:46:21.289Z,14.80
2022-10-18T01:48:52.292Z,12.40
2022-10-18T01:51:24.038Z,12.10
2022-10-18T01:53:54.732Z,12.90
2022-10-18T01:56:30.464Z,11.90
2022-10-18T01:59:07.443Z,12.10
2022-10-18T02:01:44.248Z,13.80
2022-10-18T02:04:24.213Z,8.50
2022-10-18T02:06:58.718Z,11.30
2022-10-18T02:09:35.331Z,17.00
2022-10-18T02:12:06.136Z,12.40
2022-10-18T02:14:37.243Z,12.40
2022-10-18T02:17:10.874Z,10.60
2022-10-18T02:19:43.045Z,10.40
2022-10-18T02:22:14.396Z,9.50
2022-10-18T02:24:49.708Z,12.10
2022-10-18T02:27:20.730Z,13.00
2022-10-18T02:29:51.439Z,15.00
2022-10-18T02:32:25.801Z,10.70
2022-10-18T02:35:00.608Z,10.20
2022-10-18T02:37:35.078Z,11.60
2022-10-18T02:40:07.015Z,11.80
2022-10-18T02:42:38.560Z,12.70
2022-10-18T02:45:09.921Z,12.90
2022-10-18T02:47:40.338Z,17.00
2022-10-18T02:50:11.553Z,22.40
2022-10-18T02:52:42.015Z,17.30
2022-10-18T02:55:12.842Z,18.80
2022-10-18T02:57:43.357Z,19.30
2022-10-18T03:00:15.733Z,15.10
2022-10-18T03:02:46.126Z,18.50
2022-10-18T03:05:16.663Z,17.80
2022-10-18T03:07:47.055Z,18.30
2022-10-18T03:10:17.676Z,14.10
2022-10-18T03:12:48.090Z,9.70
2022-10-18T03:15:18.730Z,10.00
2022-10-18T03:17:49.150Z,5.70
2022-10-18T03:20:19.751Z,2.80
2022-10-18T03:22:50.195Z,4.90
2022-10-18T03:25:20.813Z,1.80
2022-10-18T03:27:51.185Z,12.10
2022-10-18T03:30:21.815Z,7.10
2022-10-18T03:32:52.209Z,2.00
2022-10-18T03:35:22.719Z,1.10
2022-10-18T03:37:53.195Z,3.10
2022-10-18T03:40:23.555Z,3.50
2022-10-18T03:42:53.936Z,3.50
2022-10-18T03:45:28.833Z,9.00
2022-10-18T03:48:01.628Z,5.70
2022-10-18T03:50:31.941Z,4.60
2022-10-18T03:53:02.357Z,8.40
2022-10-18T03:55:32.741Z,3.50
2022-10-18T03:58:03.151Z,1.70
2022-10-18T04:00:33.787Z,2.70
2022-10-18T04:03:04.503Z,2.90
2022-10-18T04:05:36.501Z,3.70
2022-10-18T04:08:07.488Z,5.90
2022-10-18T04:10:39.589Z,3.50
2022-10-18T04:13:10.214Z,3.70
2022-10-18T04:15:40.779Z,5.30
2022-10-18T04:18:11.450Z,4.70
2022-10-18T04:20:41.844Z,6.20
2022-10-18T04:23:12.289Z,7.80
2022-10-18T04:28:14.004Z,6.00
2022-10-18T04:30:44.390Z,15.20
2022-10-18T04:33:14.782Z,3.60
2022-10-18T04:35:45.255Z,3.30
2022-10-18T04:38:15.764Z,6.50
2022-10-18T04:40:46.615Z,4.90
2022-10-18T04:43:17.260Z,4.20
2022-10-18T04:45:51.003Z,4.70
2022-10-18T04:48:21.593Z,4.80
2022-10-18T04:50:52.502Z,7.40
2022-10-18T04:53:22.985Z,1.90
2022-10-18T04:55:53.610Z,4.60
2022-10-18T04:58:24.021Z,9.20
2022-10-18T05:00:55.459Z,6.90
2022-10-18T05:03:25.846Z,3.00
2022-10-18T05:06:01.909Z,3.50
2022-10-18T05:08:34.167Z,3.20
2022-10-18T05:11:05.602Z,2.80
2022-10-18T05:13:36.360Z,3.60
2022-10-18T05:16:07.156Z,5.00
2022-10-18T05:18:37.632Z,4.40
2022-10-18T05:21:08.325Z,5.40
2022-10-18T05:23:38.982Z,4.50
2022-10-18T05:26:10.703Z,5.50
2022-10-18T05:28:42.381Z,4.80
2022-10-18T05:31:14.715Z,4.70
2022-10-18T05:33:46.466Z,6.30
2022-10-18T05:36:18.746Z,4.90
2022-10-18T05:38:50.438Z,5.00
2022-10-18T05:41:22.735Z,4.50
2022-10-18T05:43:54.452Z,8.80
2022-10-18T05:46:26.565Z,7.60
2022-10-18T05:48:58.313Z,9.80
2022-10-18T05:51:30.757Z,3.20
2022-10-18T05:54:02.900Z,3.90
2022-10-18T05:56:34.647Z,4.70
2022-10-18T05:59:10.478Z,3.80
2022-10-18T06:01:43.129Z,12.00
2022-10-18T06:04:14.530Z,5.30
2022-10-18T06:06:45.790Z,3.80
2022-10-18T06:09:17.522Z,8.20
2022-10-18T06:11:49.863Z,3.60
2022-10-18T06:14:22.509Z,4.40
2022-10-18T06:16:53.633Z,4.30
2022-10-18T06:19:26.558Z,5.10
2022-10-18T06:21:57.847Z,5.30
2022-10-18T06:24:29.651Z,8.10
2022-10-18T06:32:54.453Z,3.50
2022-10-18T06:35:24.867Z,4.70
2022-10-18T06:37:55.947Z,14.90
2022-10-18T06:40:26.373Z,9.30
2022-10-18T06:43:05.972Z,8.10
2022-10-18T06:45:46.995Z,8.40
2022-10-18T06:48:17.738Z,3.50
2022-10-18T06:50:56.823Z,2.50
2022-10-18T06:53:27.957Z,4.20
2022-10-18T06:56:03.264Z,8.00
2022-10-18T06:58:34.084Z,7.20
2022-10-18T07:01:09.565Z,3.00
2022-10-18T07:03:40.209Z,4.50
2022-10-18T07:06:13.920Z,1.80
2022-10-18T07:08:44.394Z,2.30
2022-10-18T07:11:17.668Z,2.10
2022-10-18T07:13:48.033Z,7.00
2022-10-18T07:16:20.119Z,0.50
2022-10-18T07:18:51.669Z,3.20
2022-10-18T07:21:23.893Z,3.20
2022-10-18T07:23:54.631Z,0.90
2022-10-18T07:26:27.067Z,1.10
2022-10-18T07:28:59.130Z,1.60
2022-10-18T07:31:30.161Z,6.60
2022-10-18T07:34:00.663Z,1.00
2022-10-18T07:36:31.267Z,1.20
2022-10-18T07:39:01.677Z,3.90
2022-10-18T07:41:33.472Z,2.80
2022-10-18T07:44:04.824Z,1.40
2022-10-18T07:46:35.558Z,3.50
2022-10-18T07:49:06.012Z,12.00
2022-10-18T07:51:36.420Z,1.10
2022-10-18T07:54:06.824Z,2.80
2022-10-18T07:56:37.140Z,4.00
2022-10-18T07:59:07.635Z,1.50
2022-10-18T08:01:38.051Z,1.60
2022-10-18T08:04:11.602Z,1.80
2022-10-18T08:06:44.425Z,2.50
2022-10-18T08:09:14.949Z,3.20
2022-10-18T08:11:45.322Z,1.10
2022-10-18T08:14:15.787Z,6.00
2022-10-18T08:16:46.233Z,2.40
2022-10-18T08:19:16.600Z,3.00
2022-10-18T08:21:46.904Z,1.70
2022-10-18T08:24:17.338Z,2.60
2022-10-18T08:26:47.682Z,10.20
2022-10-18T08:29:23.351Z,0.50
2022-10-18T08:31:56.174Z,2.00
2022-10-18T08:34:26.885Z,2.60
2022-10-18T08:36:57.410Z,0.90
2022-10-18T08:39:28.060Z,0.70
2022-10-18T08:42:15.386Z,2.70
2022-10-18T08:44:47.112Z,1.70
2022-10-18T08:47:19.665Z,7.10
2022-10-18T08:49:52.489Z,4.10
2022-10-18T08:52:29.692Z,2.00
2022-10-18T08:55:05.126Z,0.80
2022-10-18T08:57:35.669Z,1.80
2022-10-18T09:00:12.537Z,3.70
2022-10-18T09:02:52.170Z,2.40
2022-10-18T09:05:29.585Z,2.30
2022-10-18T09:08:17.752Z,1.40
2022-10-18T09:13:45.577Z,4.30
2022-10-18T09:16:18.766Z,1.40
2022-10-18T09:18:57.271Z,1.10
2022-10-18T09:21:37.320Z,2.60
2022-10-18T09:24:13.424Z,10.90
2022-10-18T09:26:47.181Z,5.80
2022-10-18T09:29:31.999Z,3.70
2022-10-18T09:32:05.685Z,4.90
2022-10-18T09:34:40.525Z,6.40
2022-10-18T09:37:15.195Z,5.00
2022-10-18T09:39:46.407Z,4.70
2022-10-18T09:42:19.459Z,5.10
2022-10-18T09:44:52.369Z,3.30
2022-10-18T09:47:25.783Z,9.10
2022-10-18T09:49:59.322Z,7.70
2022-10-18T09:52:33.068Z,8.10
2022-10-18T09:55:06.550Z,9.50
2022-10-18T09:57:40.571Z,1.00
2022-10-18T10:00:19.325Z,5.50
2022-10-18T10:02:49.760Z,3.50
2022-10-18T10:05:20.263Z,2.30
2022-10-18T10:07:51.170Z,2.50
2022-10-18T10:10:23.169Z,2.40
2022-10-18T10:13:05.626Z,3.70
2022-10-18T10:15:38.305Z,1.70
2022-10-18T10:18:20.748Z,2.40
2022-10-18T10:20:53.790Z,5.10
2022-10-18T10:23:26.303Z,4.10
2022-10-18T10:25:57.797Z,6.20
2022-10-18T10:28:31.884Z,1.90
2022-10-18T10:31:22.398Z,1.80
2022-10-18T10:34:01.205Z,4.10
2022-10-18T10:36:33.129Z,2.10
2022-10-18T10:39:08.467Z,4.20
2022-10-18T10:41:40.341Z,1.30
2022-10-18T10:44:18.449Z,0.90
2022-10-18T10:46:50.765Z,4.50
2022-10-18T10:52:27.345Z,2.70
2022-10-18T10:55:11.095Z,1.40
2022-10-18T10:57:48.741Z,5.00
2022-10-18T11:00:41.123Z,1.70
2022-10-18T11:03:31.213Z,2.30
2022-10-18T11:06:01.913Z,2.70
2022-10-18T11:08:41.272Z,15.60
2022-10-18T11:11:22.158Z,2.40
2022-10-18T11:14:13.240Z,2.00
2022-10-18T11:16:55.796Z,1.80
2022-10-18T11:19:33.841Z,2.50
2022-10-18T11:22:06.959Z,2.80
2022-10-18T11:24:38.108Z,4.30
2022-10-18T11:27:13.907Z,2.30
2022-10-18T11:29:58.153Z,0.90
2022-10-18T11:32:35.210Z,1.50
2022-10-18T11:35:22.617Z,3.30
2022-10-18T11:38:07.900Z,0.90
2022-10-18T11:40:51.452Z,1.20
2022-10-18T11:43:30.281Z,1.20
2022-10-18T11:46:11.843Z,3.80
2022-10-18T11:48:52.905Z,5.20
2022-10-18T11:51:35.383Z,1.20
2022-10-18T11:54:31.278Z,2.90
2022-10-18T11:57:10.838Z,2.20
2022-10-18T11:59:46.888Z,1.60
2022-10-18T12:02:32.403Z,1.90
2022-10-18T12:05:22.714Z,3.50
2022-10-18T12:07:57.944Z,1.70
2022-10-18T12:10:44.253Z,1.20
2022-10-18T12:13:24.521Z,2.90
2022-10-18T12:15:55.273Z,2.70
2022-10-18T12:18:29.507Z,1.50
2022-10-18T12:21:00.913Z,2.60
2022-10-18T12:23:40.182Z,2.70
2022-10-18T12:26:13.030Z,5.40
2022-10-18T12:28:52.700Z,3.70
2022-10-18T12:31:26.083Z,1.70
2022-10-18T12:33:59.590Z,12.60
2022-10-18T12:36:42.124Z,3.40
2022-10-18T12:39:19.241Z,2.10
2022-10-18T12:44:27.851Z,1.90
2022-10-18T12:46:59.905Z,2.90
2022-10-18T12:49:32.454Z,3.90
2022-10-18T12:54:34.187Z,4.30
2022-10-18T12:57:07.229Z,1.60
2022-10-18T12:59:45.269Z,2.50
2022-10-18T13:02:28.588Z,11.60
2022-10-18T13:05:00.391Z,6.90
2022-10-18T13:07:43.267Z,1.60
2022-10-18T13:13:40.637Z,21.60
2022-10-18T13:16:25.430Z,5.90
2022-10-18T13:18:58.423Z,5.60
2022-10-18T13:21:43.032Z,2.00
2022-10-18T13:24:26.119Z,1.80
2022-10-18T13:27:35.603Z,1.30
2022-10-18T13:30:22.024Z,1.40
2022-10-18T13:32:57.459Z,1.80
2022-10-18T13:35:46.995Z,1.60
2022-10-18T13:38:34.997Z,1.90
2022-10-18T13:41:07.631Z,1.10
2022-10-18T13:47:18.145Z,6.20
2022-10-18T13:49:59.754Z,3.90
2022-10-18T13:52:37.711Z,2.40
2022-10-18T13:55:26.685Z,3.20
2022-10-18T13:58:05.052Z,4.60
2022-10-18T14:00:49.281Z,3.00
2022-10-18T14:03:55.536Z,4.00
2022-10-18T14:06:23.395Z,9.20
2022-10-18T14:08:59.073Z,1.60
2022-10-18T14:11:33.602Z,3.70
2022-10-18T14:14:07.847Z,2.50
2022-10-18T14:16:40.009Z,5.80
2022-10-18T14:19:18.490Z,2.30
2022-10-18T14:21:54.670Z,7.10
2022-10-18T14:24:27.434Z,1.80
2022-10-18T14:27:20.348Z,1.30
2022-10-18T14:29:51.914Z,2.70
2022-10-18T14:32:27.326Z,3.40
2022-10-18T14:35:27.188Z,2.10
2022-10-18T14:37:50.766Z,1.40
2022-10-18T14:40:36.184Z,4.10
2022-10-18T14:43:11.496Z,13.80
2022-10-18T14:45:42.069Z,3.60
2022-10-18T14:48:17.785Z,6.60
2022-10-18T14:50:50.267Z,9.10
2022-10-18T14:53:23.315Z,10.10
2022-10-18T14:55:57.474Z,6.90
2022-10-18T14:58:28.075Z,9.90
2022-10-18T15:00:59.131Z,6.90
2022-10-18T15:03:29.882Z,7.30
2022-10-18T15:06:01.763Z,6.90
2022-10-18T15:08:37.109Z,6.60
2022-10-18T15:11:11.833Z,20.40
2022-10-18T15:13:49.697Z,8.30
2022-10-18T15:16:22.659Z,13.60
2022-10-18T15:19:05.391Z,7.10
2022-10-18T15:21:37.380Z,8.90
2022-10-18T15:24:29.388Z,14.10
2022-10-18T15:27:03.424Z,17.20
2022-10-18T15:29:36.596Z,7.00
2022-10-18T15:32:18.965Z,8.90
2022-10-18T15:34:49.630Z,12.30
2022-10-18T15:37:30.338Z,4.30
2022-10-18T15:40:19.390Z,6.80
2022-10-18T15:42:50.277Z,6.80
2022-10-18T15:45:38.085Z,6.30
2022-10-18T15:48:23.877Z,10.70
2022-10-18T15:50:55.489Z,7.70
2022-10-18T15:53:51.656Z,7.00
2022-10-18T15:56:33.960Z,13.40
2022-10-18T15:59:05.482Z,5.60
2022-10-18T16:01:38.893Z,8.00
2022-10-18T16:04:15.296Z,19.90
2022-10-18T16:06:45.772Z,15.50
2022-10-18T16:09:18.997Z,15.60
2022-10-18T16:11:56.770Z,6.00
2022-10-18T16:14:28.474Z,12.30
2022-10-18T16:17:01.455Z,11.30
2022-10-18T16:19:33.662Z,20.80
2022-10-18T16:22:06.904Z,12.00
2022-10-18T16:24:38.137Z,5.50
2022-10-18T16:27:11.322Z,4.80
2022-10-18T16:29:41.781Z,4.90
2022-10-18T16:32:12.171Z,7.40
2022-10-18T16:34:42.718Z,6.90
2022-10-18T16:37:16.256Z,8.20
2022-10-18T16:39:46.949Z,6.30
2022-10-18T16:42:17.546Z,9.20
2022-10-18T16:44:49.005Z,7.20
2022-10-18T16:47:19.687Z,7.50
2022-10-18T16:49:50.402Z,4.60
2022-10-18T16:52:20.882Z,4.60
2022-10-18T16:54:51.432Z,10.40
2022-10-18T16:57:21.966Z,7.00
2022-10-18T16:59:52.817Z,15.30
2022-10-18T17:02:23.275Z,5.50
2022-10-18T17:04:53.725Z,8.10
2022-10-18T17:07:25.948Z,7.80
2022-10-18T17:09:56.500Z,6.40
2022-10-18T17:12:26.904Z,7.80
2022-10-18T17:14:57.477Z,12.30
2022-10-18T17:17:28.292Z,5.60
2022-10-18T17:19:58.717Z,8.70
2022-10-18T17:22:29.121Z,7.30
2022-10-18T17:24:59.623Z,13.80
2022-10-18T17:27:30.184Z,9.50
2022-10-18T17:30:00.820Z,4.20
2022-10-18T17:32:31.744Z,4.50
2022-10-18T17:35:02.315Z,4.70
2022-10-18T17:37:33.116Z,9.30
2022-10-18T17:40:03.743Z,6.40
2022-10-18T17:42:34.146Z,15.10
2022-10-18T17:45:04.905Z,6.40
2022-10-18T17:47:35.851Z,8.00
2022-10-18T17:50:07.015Z,6.50
2022-10-18T17:52:37.726Z,10.80
2022-10-18T17:55:08.853Z,15.40
2022-10-18T17:57:39.518Z,6.20
2022-10-18T18:00:13.117Z,5.40
2022-10-18T18:02:44.776Z,9.60
2022-10-18T18:05:15.356Z,9.40
2022-10-18T18:07:46.475Z,8.90
2022-10-18T18:10:17.330Z,7.60
2022-10-18T18:12:47.861Z,7.10
2022-10-18T18:15:18.516Z,8.70
2022-10-18T18:18:01.730Z,9.10
2022-10-18T18:20:36.490Z,9.20
2022-10-18T18:23:06.922Z,16.60
2022-10-18T18:25:37.262Z,9.50
2022-10-18T18:28:07.881Z,8.00
2022-10-18T18:30:41.446Z,7.10
2022-10-18T18:33:12.120Z,7.60
2022-10-18T18:35:42.670Z,8.40
2022-10-18T18:38:13.253Z,7.20
2022-10-18T18:40:43.715Z,11.00
2022-10-18T18:43:28.923Z,13.80
2022-10-18T18:45:59.403Z,9.40
2022-10-18T18:48:30.222Z,12.30
2022-10-18T18:51:00.664Z,7.10
2022-10-18T18:53:31.521Z,9.50
2022-10-18T18:56:06.817Z,15.90
2022-10-18T18:58:39.127Z,15.50
2022-10-18T19:01:11.718Z,22.70
2022-10-18T19:03:43.156Z,12.50
2022-10-18T19:06:15.891Z,14.60
2022-10-18T19:08:46.927Z,6.80
2022-10-18T19:11:19.104Z,12.10
2022-10-18T19:13:50.286Z,10.00
2022-10-18T19:16:26.200Z,10.40
2022-10-18T19:19:02.096Z,9.70
2022-10-18T19:21:34.864Z,10.70
2022-10-18T19:24:06.115Z,9.60
2022-10-18T19:26:39.003Z,8.80
2022-10-18T19:29:12.314Z,17.50
2022-10-18T19:31:44.136Z,10.40
2022-10-18T19:34:16.129Z,14.00
2022-10-18T19:36:47.946Z,8.80
2022-10-18T19:39:20.299Z,11.00
2022-10-18T19:41:52.198Z,17.20
2022-10-18T19:44:22.809Z,10.30
2022-10-18T19:46:54.676Z,17.60
2022-10-18T19:49:25.531Z,12.90
2022-10-18T19:51:56.119Z,13.20
2022-10-18T19:54:26.890Z,12.60
2022-10-18T19:56:57.439Z,12.20
2022-10-18T19:59:28.163Z,15.80
2022-10-18T20:02:00.477Z,10.60
2022-10-18T20:04:34.221Z,10.20
2022-10-18T20:07:05.463Z,12.30
2022-10-18T20:09:36.409Z,12.20
2022-10-18T20:12:07.172Z,20.30
2022-10-18T20:14:37.529Z,28.20
2022-10-18T20:17:11.969Z,17.80
2022-10-18T20:19:42.336Z,10.20
2022-10-18T20:22:12.764Z,18.10
2022-10-18T20:24:43.243Z,17.50
2022-10-18T20:27:13.595Z,25.10
2022-10-18T20:29:43.937Z,14.70
2022-10-18T20:32:14.443Z,12.50
2022-10-18T20:34:45.133Z,14.70
2022-10-18T20:37:15.542Z,16.20
2022-10-18T20:39:46.101Z,9.50
2022-10-18T20:42:16.617Z,13.20
2022-10-18T20:44:48.273Z,11.20
2022-10-18T20:47:18.655Z,21.30
2022-10-18T20:49:49.127Z,12.60
2022-10-18T20:52:19.542Z,12.90
2022-10-18T20:54:50.633Z,7.80
2022-10-18T20:57:21.049Z,9.90
2022-10-18T20:59:52.504Z,13.00
2022-10-18T21:02:22.880Z,13.30
2022-10-18T21:04:53.228Z,13.10
2022-10-18T21:07:23.657Z,15.10
2022-10-18T21:09:54.120Z,15.60
2022-10-18T21:12:26.485Z,12.90
2022-10-18T21:15:00.087Z,12.70
2022-10-18T21:17:30.520Z,11.60
2022-10-18T21:20:01.618Z,19.80
2022-10-18T21:22:32.289Z,11.90
2022-10-18T21:25:02.946Z,13.50
2022-10-18T21:27:34.182Z,10.80
2022-10-18T21:30:07.656Z,12.70
2022-10-18T21:32:39.413Z,10.40
2022-10-18T21:35:14.110Z,12.10
2022-10-18T21:37:45.585Z,11.80
2022-10-18T21:40:19.508Z,12.50
2022-10-18T21:42:52.364Z,13.60
2022-10-18T21:45:25.082Z,15.20
2022-10-18T21:47:56.537Z,11.30
2022-10-18T21:50:27.866Z,14.10
2022-10-18T21:53:01.018Z,12.40
2022-10-18T21:55:33.916Z,16.60
2022-10-18T22:00:37.022Z,17.20
2022-10-18T22:03:12.563Z,17.10
2022-10-18T22:05:43.921Z,13.10
2022-10-18T22:08:15.475Z,15.30
2022-10-18T22:10:47.488Z,17.30
2022-10-18T22:13:20.641Z,13.10
2022-10-18T22:15:53.941Z,15.10
2022-10-18T22:18:25.571Z,16.80
2022-10-18T22:20:59.120Z,12.20
2022-10-18T22:33:12.490Z,17.10
2022-10-18T22:35:43.289Z,17.60
2022-10-18T22:38:14.014Z,20.40
2022-10-18T22:40:45.212Z,18.30
2022-10-18T22:43:15.737Z,18.20
2022-10-18T22:45:46.153Z,15.20
2022-10-18T22:48:16.862Z,13.70
2022-10-18T22:50:47.267Z,15.70
2022-10-18T22:53:17.640Z,12.40
2022-10-18T22:55:50.058Z,17.20
2022-10-18T22:58:21.278Z,22.20
2022-10-18T23:00:51.660Z,16.20
2022-10-18T23:03:22.112Z,19.20
2022-10-18T23:05:52.896Z,17.10
2022-10-18T23:08:23.322Z,18.20
2022-10-18T23:10:55.618Z,15.80
2022-10-18T23:13:27.978Z,14.50
2022-10-18T23:16:04.977Z,16.00
2022-10-18T23:18:35.810Z,15.00
2022-10-18T23:21:08.578Z,24.00
2022-10-18T23:23:40.459Z,16.70
2022-10-18T23:26:13.154Z,12.00
2022-10-18T23:28:44.858Z,17.40
2022-10-18T23:31:17.985Z,15.10
2022-10-18T23:33:50.054Z,19.00
2022-10-18T23:36:20.473Z,19.70
2022-10-18T23:38:51.105Z,19.10
2022-10-18T23:41:21.914Z,16.90
2022-10-18T23:43:52.357Z,15.60
2022-10-18T23:46:23.051Z,17.40
2022-10-18T23:48:57.351Z,16.60
2022-10-18T23:51:27.840Z,12.40
2022-10-18T23:53:58.302Z,16.10
2022-10-18T23:56:28.691Z,18.70
2022-10-18T23:58:59.161Z,18.10
